Time;durP1;ratioP1;P1;durP2;ratioP2;P2;SDS_P1;SDS_P2;PMS_P1;PMS_P2;Temp;Humidity;BMP_temperature;BMP_pressure;BME280_temperature;BME280_humidity;BME280_pressure;Samples;Min_cycle;Max_cycle;Signal;HPM_P1;HPM_P2
2022/11/14 00:01:45;;;;;;;;;;;17.20;92.90;;;;;;5094114;28;19904;-39
2022/11/14 00:04:10;;;;;;;;;;;17.20;92.90;;;;;;5094076;28;19957;-38
2022/11/14 00:06:36;;;;;;;;;;;17.20;92.90;;;;;;5093715;28;19944;-39
2022/11/14 00:09:01;;;;;;;;;;;17.10;92.90;;;;;;5093678;28;20007;-39
2022/11/14 00:11:26;;;;;;;;;;;17.10;92.90;;;;;;5093237;28;19904;-39
2022/11/14 00:13:52;;;;;;;;;;;17.10;92.90;;;;;;5092986;28;20299;-39
2022/11/14 00:16:17;;;;;;;;;;;17.20;92.90;;;;;;5096436;28;19904;-39
2022/11/14 00:18:43;;;;;;;;;;;17.20;92.90;;;;;;5096856;28;19914;-39
2022/11/14 00:21:08;;;;;;;;;;;17.10;92.90;;;;;;5096538;28;19962;-38
2022/11/14 00:23:34;;;;;;;;;;;17.20;92.90;;;;;;5096777;28;20357;-39
2022/11/14 00:25:59;;;;;;;;;;;17.20;92.90;;;;;;5096456;28;20358;-39
2022/11/14 00:28:25;;;;;;;;;;;17.20;92.80;;;;;;5096699;28;19957;-39
2022/11/14 00:30:50;;;;;;;;;;;17.20;92.80;;;;;;5096430;28;19912;-39
2022/11/14 00:33:18;;;;;;;;;;;17.20;92.80;;;;;;5096592;28;19904;-39
2022/11/14 00:35:49;;;;;;;;;;;17.20;92.80;;;;;;5096506;28;19904;-38
2022/11/14 00:38:14;;;;;;;;;;;17.20;92.80;;;;;;5096505;28;19908;-38
2022/11/14 00:40:40;;;;;;;;;;;17.20;92.80;;;;;;5096465;28;20327;-39
2022/11/14 00:43:05;;;;;;;;;;;17.20;92.80;;;;;;5096091;28;19904;-39
2022/11/14 00:45:31;;;;;;;;;;;17.10;92.80;;;;;;5096356;28;19939;-39
2022/11/14 00:47:56;;;;;;;;;;;17.20;92.80;;;;;;5096045;28;19957;-39
2022/11/14 00:50:21;;;;;;;;;;;17.20;92.80;;;;;;5096347;28;20382;-39
2022/11/14 00:52:47;;;;;;;;;;;17.10;92.80;;;;;;5095867;28;19904;-39
2022/11/14 00:55:12;;;;;;;;;;;17.10;92.80;;;;;;5096193;28;19907;-39
2022/11/14 00:57:38;;;;;;;;;;;17.10;92.80;;;;;;5096077;28;19908;-38
2022/11/14 01:00:04;;;;;;;;;;;17.10;92.80;;;;;;5096055;28;20053;-39
2022/11/14 01:02:30;;;;;;;;;;;17.10;92.80;;;;;;5095614;28;19915;-39
2022/11/14 01:04:55;;;;;;;;;;;17.00;92.80;;;;;;5096015;28;19904;-39
2022/11/14 01:07:21;;;;;;;;;;;17.00;92.80;;;;;;5033820;28;1762633;-39
2022/11/14 01:09:46;;;;;;;;;;;17.00;92.80;;;;;;5096974;28;19915;-39
2022/11/14 01:12:12;;;;;;;;;;;17.00;92.90;;;;;;5097117;28;19904;-39
2022/11/14 01:14:38;;;;;;;;;;;17.00;92.90;;;;;;5096784;28;19904;-39
2022/11/14 01:17:03;;;;;;;;;;;17.00;92.90;;;;;;5096932;28;20263;-38
2022/11/14 01:19:29;;;;;;;;;;;17.00;92.90;;;;;;5096692;28;19930;-39
2022/11/14 01:21:54;;;;;;;;;;;16.90;92.90;;;;;;5096585;28;20360;-40
2022/11/14 01:24:20;;;;;;;;;;;16.90;92.90;;;;;;5097045;28;20010;-39
2022/11/14 01:26:45;;;;;;;;;;;16.90;92.90;;;;;;5096356;28;20239;-38
2022/11/14 01:29:10;;;;;;;;;;;16.90;92.90;;;;;;5096710;28;19904;-39
2022/11/14 01:31:36;;;;;;;;;;;16.90;92.90;;;;;;5096341;28;20038;-39
2022/11/14 01:34:01;;;;;;;;;;;16.90;92.90;;;;;;5096347;28;19904;-39
2022/11/14 01:36:27;;;;;;;;;;;16.90;92.90;;;;;;5096675;28;20367;-39
2022/11/14 01:38:52;;;;;;;;;;;16.80;92.80;;;;;;5096202;28;19904;-39
2022/11/14 01:41:18;;;;;;;;;;;16.80;92.90;;;;;;5096542;28;19904;-39
2022/11/14 01:43:44;;;;;;;;;;;16.70;92.90;;;;;;5096658;28;19904;-38
2022/11/14 01:46:13;;;;;;;;;;;16.70;92.90;;;;;;5096423;28;19908;-39
2022/11/14 01:48:46;;;;;;;;;;;16.70;92.90;;;;;;5096122;28;20011;-39
2022/11/14 01:51:20;;;;;;;;;;;16.60;93.00;;;;;;5095956;28;20411;-39
2022/11/14 01:53:47;;;;;;;;;;;16.60;93.00;;;;;;5096684;28;19951;-38
2022/11/14 01:56:16;;;;;;;;;;;16.60;93.00;;;;;;5096473;28;19994;-39
2022/11/14 01:58:43;;;;;;;;;;;16.60;93.00;;;;;;5096216;28;19911;-39
2022/11/14 02:01:09;;;;;;;;;;;16.60;93.00;;;;;;5096173;28;19904;-39
2022/11/14 02:03:37;;;;;;;;;;;16.60;93.00;;;;;;5095862;28;20399;-39
2022/11/14 02:06:03;;;;;;;;;;;16.50;93.00;;;;;;5095856;28;19913;-39
2022/11/14 02:08:29;;;;;;;;;;;16.50;93.00;;;;;;5095637;28;19923;-38
2022/11/14 02:10:54;;;;;;;;;;;16.50;93.00;;;;;;5096259;28;19908;-39
2022/11/14 02:13:20;;;;;;;;;;;16.50;93.00;;;;;;5095613;28;19911;-39
2022/11/14 02:15:45;;;;;;;;;;;16.50;93.00;;;;;;5095830;28;20297;-38
2022/11/14 02:18:11;;;;;;;;;;;16.40;93.00;;;;;;5095744;28;20227;-38
2022/11/14 02:20:41;;;;;;;;;;;16.40;93.00;;;;;;5095785;28;20235;-38
2022/11/14 02:23:07;;;;;;;;;;;16.40;93.10;;;;;;5095400;28;19904;-39
2022/11/14 02:25:33;;;;;;;;;;;16.40;93.00;;;;;;5095506;28;19910;-38
2022/11/14 02:27:58;;;;;;;;;;;16.40;93.00;;;;;;5095650;28;20431;-39
2022/11/14 02:30:24;;;;;;;;;;;16.40;93.10;;;;;;5095720;28;19962;-39
2022/11/14 02:32:49;;;;;;;;;;;16.40;93.10;;;;;;5095205;28;19908;-39
2022/11/14 02:35:15;;;;;;;;;;;16.40;93.10;;;;;;5095503;28;19911;-39
2022/11/14 02:37:40;;;;;;;;;;;16.30;93.00;;;;;;5076646;28;20335;-39
2022/11/14 02:40:06;;;;;;;;;;;16.30;93.00;;;;;;5095069;28;19904;-38
2022/11/14 02:42:32;;;;;;;;;;;16.30;93.00;;;;;;5095353;28;19911;-38
2022/11/14 02:44:57;;;;;;;;;;;16.30;93.10;;;;;;5095015;28;19956;-39
2022/11/14 02:47:26;;;;;;;;;;;16.30;93.00;;;;;;5095392;28;19911;-39
2022/11/14 02:49:52;;;;;;;;;;;16.30;93.10;;;;;;5094978;28;20355;-39
2022/11/14 02:52:17;;;;;;;;;;;16.30;93.00;;;;;;5077063;28;19911;-39
2022/11/14 02:54:42;;;;;;;;;;;16.30;93.00;;;;;;5094851;28;20247;-39
2022/11/14 02:57:08;;;;;;;;;;;16.20;93.00;;;;;;5095108;28;19918;-39
2022/11/14 02:59:34;;;;;;;;;;;16.20;93.00;;;;;;5095146;28;19935;-39
2022/11/14 03:01:59;;;;;;;;;;;16.20;93.00;;;;;;5094724;28;19936;-39
2022/11/14 03:04:25;;;;;;;;;;;16.20;93.00;;;;;;5095357;28;19915;-39
2022/11/14 03:06:50;;;;;;;;;;;16.20;93.00;;;;;;5095017;28;20012;-39
2022/11/14 03:09:17;;;;;;;;;;;16.20;93.00;;;;;;5095049;28;19916;-39
2022/11/14 03:11:42;;;;;;;;;;;16.20;93.00;;;;;;5094650;28;19983;-39
2022/11/14 03:14:08;;;;;;;;;;;16.20;93.00;;;;;;5094857;28;19954;-39
2022/11/14 03:16:33;;;;;;;;;;;16.10;93.00;;;;;;5094393;28;19912;-39
2022/11/14 03:18:59;;;;;;;;;;;16.10;93.00;;;;;;5094859;28;19905;-39
2022/11/14 03:21:24;;;;;;;;;;;16.10;93.00;;;;;;5094548;28;19999;-39
2022/11/14 03:23:50;;;;;;;;;;;16.10;93.00;;;;;;5094680;28;19908;-38
2022/11/14 03:26:15;;;;;;;;;;;16.00;93.10;;;;;;5094620;28;19905;-39
2022/11/14 03:28:41;;;;;;;;;;;16.00;93.10;;;;;;5094385;28;20335;-39
2022/11/14 03:31:07;;;;;;;;;;;16.10;93.10;;;;;;5094559;28;19939;-39
2022/11/14 03:33:34;;;;;;;;;;;16.00;93.10;;;;;;5094618;28;19911;-39
2022/11/14 03:35:59;;;;;;;;;;;16.00;93.10;;;;;;5094485;28;19943;-39
2022/11/14 03:38:25;;;;;;;;;;;16.00;93.10;;;;;;5094458;28;19974;-39
2022/11/14 03:40:50;;;;;;;;;;;16.00;93.10;;;;;;5094757;28;19973;-39
2022/11/14 03:43:16;;;;;;;;;;;16.00;93.10;;;;;;5094112;28;19904;-39
2022/11/14 03:45:42;;;;;;;;;;;16.00;93.10;;;;;;5076302;28;19904;-38
2022/11/14 03:48:07;;;;;;;;;;;15.90;93.20;;;;;;5094236;28;20288;-39
2022/11/14 03:50:33;;;;;;;;;;;15.90;93.20;;;;;;5094319;28;19904;-39
2022/11/14 03:52:58;;;;;;;;;;;15.90;93.30;;;;;;5094229;28;19904;-39
2022/11/14 03:55:24;;;;;;;;;;;15.90;93.30;;;;;;5094331;28;19990;-39
2022/11/14 03:57:49;;;;;;;;;;;15.80;93.40;;;;;;5093862;28;19916;-38
2022/11/14 04:00:15;;;;;;;;;;;15.80;93.40;;;;;;5093915;28;19904;-39
2022/11/14 04:02:40;;;;;;;;;;;15.80;93.30;;;;;;5094190;28;19904;-39
2022/11/14 04:05:06;;;;;;;;;;;15.80;93.40;;;;;;5094149;28;19912;-39
2022/11/14 04:07:32;;;;;;;;;;;15.70;93.50;;;;;;5093865;28;19923;-39
2022/11/14 04:09:57;;;;;;;;;;;15.70;93.50;;;;;;5093978;28;19905;-38
2022/11/14 04:12:23;;;;;;;;;;;15.70;93.40;;;;;;5093713;28;20362;-38
2022/11/14 04:14:48;;;;;;;;;;;15.70;93.50;;;;;;5094017;28;20023;-39
2022/11/14 04:17:13;;;;;;;;;;;15.70;93.40;;;;;;5093581;28;19962;-38
2022/11/14 04:19:39;;;;;;;;;;;15.60;93.60;;;;;;5093924;28;19905;-38
2022/11/14 04:22:05;;;;;;;;;;;15.60;93.60;;;;;;5093983;28;19910;-39
2022/11/14 04:24:30;;;;;;;;;;;15.60;93.60;;;;;;5093824;28;19908;-39
2022/11/14 04:26:56;;;;;;;;;;;15.60;93.60;;;;;;5076025;28;19962;-39
2022/11/14 04:29:21;;;;;;;;;;;15.60;93.50;;;;;;5093980;28;20348;-38
2022/11/14 04:31:47;;;;;;;;;;;15.70;93.50;;;;;;5093525;28;19911;-39
2022/11/14 04:34:12;;;;;;;;;;;15.60;93.50;;;;;;5093833;28;19969;-38
2022/11/14 04:36:38;;;;;;;;;;;15.60;93.70;;;;;;5093767;28;20255;-40
2022/11/14 04:39:04;;;;;;;;;;;15.60;93.70;;;;;;5093811;28;20003;-39
2022/11/14 04:41:29;;;;;;;;;;;15.50;93.60;;;;;;5093500;28;19919;-41
2022/11/14 04:43:54;;;;;;;;;;;15.50;93.70;;;;;;5093437;28;19966;-38
2022/11/14 04:46:20;;;;;;;;;;;15.50;93.70;;;;;;5093288;28;20216;-38
2022/11/14 04:48:46;;;;;;;;;;;15.40;93.80;;;;;;5093221;28;19904;-39
2022/11/14 04:51:11;;;;;;;;;;;15.40;93.80;;;;;;5093584;28;20250;-39
2022/11/14 04:53:36;;;;;;;;;;;15.40;94.10;;;;;;5093286;28;19904;-39
2022/11/14 04:56:02;;;;;;;;;;;15.40;93.90;;;;;;5093207;28;19957;-39
2022/11/14 04:58:27;;;;;;;;;;;15.40;94.00;;;;;;5093217;28;19966;-38
2022/11/14 05:00:53;;;;;;;;;;;15.40;93.90;;;;;;5094466;28;19904;-38
2022/11/14 05:03:18;;;;;;;;;;;15.40;94.00;;;;;;5097226;28;19911;-39
2022/11/14 05:05:44;;;;;;;;;;;15.40;94.00;;;;;;5096839;28;20342;-39
2022/11/14 05:08:09;;;;;;;;;;;15.40;94.00;;;;;;5096903;28;19935;-39
2022/11/14 05:10:35;;;;;;;;;;;15.30;94.00;;;;;;5097072;28;19911;-39
2022/11/14 05:13:00;;;;;;;;;;;15.30;93.90;;;;;;5096589;28;20398;-40
2022/11/14 05:15:26;;;;;;;;;;;15.30;93.90;;;;;;5096967;28;19912;-38
2022/11/14 05:17:51;;;;;;;;;;;15.30;93.90;;;;;;5096625;28;19937;-38
2022/11/14 05:20:17;;;;;;;;;;;15.30;93.90;;;;;;5096781;28;19910;-39
2022/11/14 05:22:42;;;;;;;;;;;15.30;93.90;;;;;;5096872;28;19904;-39
2022/11/14 05:25:08;;;;;;;;;;;15.30;94.00;;;;;;5096914;28;19918;-39
2022/11/14 05:27:34;;;;;;;;;;;15.30;94.00;;;;;;5096829;28;20262;-39
2022/11/14 05:29:59;;;;;;;;;;;15.30;94.00;;;;;;5096384;28;20255;-39
2022/11/14 05:32:25;;;;;;;;;;;15.30;93.90;;;;;;5096545;28;19915;-39
2022/11/14 05:34:50;;;;;;;;;;;15.30;94.00;;;;;;5096458;28;20010;-39
2022/11/14 05:37:15;;;;;;;;;;;15.30;94.00;;;;;;5096496;28;19919;-39
2022/11/14 05:39:41;;;;;;;;;;;15.30;94.00;;;;;;5096459;28;19904;-39
2022/11/14 05:42:06;;;;;;;;;;;15.30;94.00;;;;;;5078328;28;19905;-39
2022/11/14 05:44:32;;;;;;;;;;;15.30;93.90;;;;;;5096389;28;19911;-39
2022/11/14 05:46:57;;;;;;;;;;;15.30;94.00;;;;;;5096424;28;19904;-39
2022/11/14 05:49:23;;;;;;;;;;;15.20;94.00;;;;;;5096335;28;19904;-39
2022/11/14 05:51:48;;;;;;;;;;;15.20;93.90;;;;;;5096310;28;19904;-39
2022/11/14 05:54:14;;;;;;;;;;;15.20;94.00;;;;;;5096146;28;19904;-39
2022/11/14 05:56:39;;;;;;;;;;;15.20;93.90;;;;;;5096104;28;20018;-39
2022/11/14 05:59:05;;;;;;;;;;;15.20;94.00;;;;;;5096059;28;20319;-39
2022/11/14 06:01:30;;;;;;;;;;;15.20;93.90;;;;;;5096073;28;19930;-39
2022/11/14 06:03:55;;;;;;;;;;;15.20;94.00;;;;;;5096009;28;20318;-39
2022/11/14 06:06:21;;;;;;;;;;;15.20;94.00;;;;;;5095657;28;19908;-39
2022/11/14 06:08:47;;;;;;;;;;;15.20;94.00;;;;;;5095393;28;19923;-39
2022/11/14 06:11:16;;;;;;;;;;;15.20;94.00;;;;;;5095261;28;20354;-39
2022/11/14 06:13:42;;;;;;;;;;;15.20;94.00;;;;;;5094793;28;19911;-39
2022/11/14 06:16:12;;;;;;;;;;;15.20;94.00;;;;;;5095751;28;19904;-39
2022/11/14 06:18:37;;;;;;;;;;;15.20;94.00;;;;;;5095454;28;19919;-39
2022/11/14 06:21:05;;;;;;;;;;;15.20;94.00;;;;;;5095456;28;19904;-39
2022/11/14 06:23:30;;;;;;;;;;;15.10;94.00;;;;;;5095366;28;19907;-39
2022/11/14 06:26:00;;;;;;;;;;;15.10;94.00;;;;;;5095174;28;19911;-39
2022/11/14 06:28:26;;;;;;;;;;;15.10;94.00;;;;;;5095316;28;19904;-39
2022/11/14 06:30:55;;;;;;;;;;;15.10;94.00;;;;;;5095341;28;20289;-39
2022/11/14 06:33:20;;;;;;;;;;;15.10;94.10;;;;;;5095195;28;19915;-39
2022/11/14 06:35:46;;;;;;;;;;;15.10;94.10;;;;;;5095259;28;19904;-39
2022/11/14 06:38:11;;;;;;;;;;;15.10;94.10;;;;;;5095147;28;19912;-39
2022/11/14 06:40:37;;;;;;;;;;;15.10;94.00;;;;;;5094986;28;19903;-39
2022/11/14 06:43:02;;;;;;;;;;;15.10;94.10;;;;;;5094699;28;19904;-42
2022/11/14 06:45:28;;;;;;;;;;;15.10;94.10;;;;;;5094676;28;19904;-40
2022/11/14 06:47:57;;;;;;;;;;;15.10;94.10;;;;;;5094560;28;19911;-40
2022/11/14 06:50:22;;;;;;;;;;;15.10;94.10;;;;;;5094479;28;19988;-39
2022/11/14 06:52:47;;;;;;;;;;;15.10;94.10;;;;;;5076295;28;19954;-39
2022/11/14 06:55:13;;;;;;;;;;;15.10;94.10;;;;;;5094405;28;19911;-39
2022/11/14 06:57:38;;;;;;;;;;;15.10;94.20;;;;;;5075431;28;19918;-40
2022/11/14 07:00:04;;;;;;;;;;;15.10;94.20;;;;;;5081769;28;20289;-40
2022/11/14 07:02:30;;;;;;;;;;;15.10;94.10;;;;;;5095090;28;19919;-39
2022/11/14 07:04:55;;;;;;;;;;;15.10;94.10;;;;;;5094344;28;20282;-39
2022/11/14 07:07:20;;;;;;;;;;;15.10;94.20;;;;;;5094166;28;19908;-39
2022/11/14 07:09:46;;;;;;;;;;;15.10;94.20;;;;;;5094785;28;19957;-39
2022/11/14 07:12:11;;;;;;;;;;;15.10;94.20;;;;;;5089723;28;19912;-39
2022/11/14 07:14:37;;;;;;;;;;;15.10;94.20;;;;;;5084446;28;20271;-40
2022/11/14 07:17:02;;;;;;;;;;;15.10;94.20;;;;;;5105459;28;19926;-39
2022/11/14 07:19:28;;;;;;;;;;;15.10;94.20;;;;;;5093573;28;19919;-39
2022/11/14 07:21:53;;;;;;;;;;;15.10;94.20;;;;;;5092892;28;20002;-39
2022/11/14 07:24:19;;;;;;;;;;;15.10;94.20;;;;;;5092097;28;19961;-39
2022/11/14 07:26:44;;;;;;;;;;;15.10;94.20;;;;;;5092374;28;19995;-40
2022/11/14 07:29:10;;;;;;;;;;;15.10;94.20;;;;;;5091439;28;19916;-39
2022/11/14 07:31:35;;;;;;;;;;;15.10;94.20;;;;;;5093824;28;20286;-39
2022/11/14 07:34:01;;;;;;;;;;;15.00;94.20;;;;;;5094042;28;20044;-39
2022/11/14 07:36:26;;;;;;;;;;;15.00;94.30;;;;;;5093367;28;19908;-39
2022/11/14 07:38:52;;;;;;;;;;;15.10;94.30;;;;;;5093544;28;19943;-39
2022/11/14 07:41:18;;;;;;;;;;;15.00;94.30;;;;;;5093048;28;19915;-40
2022/11/14 07:43:43;;;;;;;;;;;15.00;94.20;;;;;;5076684;28;19912;-39
2022/11/14 07:46:10;;;;;;;;;;;15.00;94.30;;;;;;5107181;28;19933;-39
2022/11/14 07:48:36;;;;;;;;;;;15.10;94.30;;;;;;5102795;28;19915;-40
2022/11/14 07:51:02;;;;;;;;;;;15.00;94.30;;;;;;5093693;28;19908;-39
2022/11/14 07:53:28;;;;;;;;;;;15.00;94.20;;;;;;5075679;28;19908;-38
2022/11/14 07:55:54;;;;;;;;;;;15.10;94.30;;;;;;5094169;28;19909;-38
2022/11/14 07:58:20;;;;;;;;;;;15.00;94.20;;;;;;5093405;28;20326;-38
2022/11/14 08:00:45;;;;;;;;;;;15.00;94.20;;;;;;5093753;28;19908;-39
2022/11/14 08:03:11;;;;;;;;;;;15.00;94.20;;;;;;5093857;28;19927;-39
2022/11/14 08:05:36;;;;;;;;;;;15.00;94.30;;;;;;5093565;28;19908;-39
2022/11/14 08:08:02;;;;;;;;;;;15.10;94.30;;;;;;5093427;28;19928;-39
2022/11/14 08:10:28;;;;;;;;;;;15.00;94.30;;;;;;5093355;28;19908;-38
2022/11/14 08:12:58;;;;;;;;;;;15.00;94.30;;;;;;5093616;28;19927;-39
2022/11/14 08:15:23;;;;;;;;;;;15.00;94.30;;;;;;5075543;28;19908;-39
2022/11/14 08:17:49;;;;;;;;;;;15.00;94.30;;;;;;5093014;28;19931;-38
2022/11/14 08:20:14;;;;;;;;;;;15.00;94.30;;;;;;5093097;28;19915;-39
2022/11/14 08:22:40;;;;;;;;;;;15.00;94.30;;;;;;5093539;28;19912;-39
2022/11/14 08:25:05;;;;;;;;;;;15.00;94.30;;;;;;5093390;28;19952;-39
2022/11/14 08:27:31;;;;;;;;;;;15.00;94.30;;;;;;5092327;28;20393;-39
2022/11/14 08:29:56;;;;;;;;;;;15.00;94.30;;;;;;5091923;28;20313;-39
2022/11/14 08:32:22;;;;;;;;;;;15.10;94.30;;;;;;5091698;28;19947;-39
2022/11/14 08:34:47;;;;;;;;;;;15.00;94.20;;;;;;5084403;28;19912;-39
2022/11/14 08:37:13;;;;;;;;;;;15.00;94.30;;;;;;5102882;28;20023;-39
2022/11/14 08:39:38;;;;;;;;;;;15.00;94.30;;;;;;5079509;28;19954;-39
2022/11/14 08:42:04;;;;;;;;;;;15.00;94.30;;;;;;5099603;28;19990;-39
2022/11/14 08:44:29;;;;;;;;;;;15.00;94.30;;;;;;5097426;28;19920;-39
2022/11/14 08:46:55;;;;;;;;;;;15.00;94.30;;;;;;5079084;28;19947;-39
2022/11/14 08:49:20;;;;;;;;;;;15.00;94.30;;;;;;5096424;28;19916;-39
2022/11/14 08:51:46;;;;;;;;;;;15.00;94.30;;;;;;5105484;28;19920;-39
2022/11/14 08:54:11;;;;;;;;;;;15.00;94.30;;;;;;5096642;28;19912;-39
2022/11/14 08:56:37;;;;;;;;;;;15.00;94.30;;;;;;5096845;28;20255;-40
2022/11/14 08:59:03;;;;;;;;;;;15.00;94.40;;;;;;5095853;28;19916;-39
2022/11/14 09:01:29;;;;;;;;;;;15.00;94.30;;;;;;5098034;28;20293;-40
2022/11/14 09:03:54;;;;;;;;;;;15.00;94.30;;;;;;5089360;28;19994;-39
2022/11/14 09:06:19;;;;;;;;;;;14.90;94.30;;;;;;5076547;28;19916;-43
2022/11/14 09:08:45;;;;;;;;;;;15.00;94.30;;;;;;5097574;28;19920;-39
2022/11/14 09:11:10;;;;;;;;;;;15.00;94.30;;;;;;5107654;28;20362;-39
2022/11/14 09:13:36;;;;;;;;;;;15.00;94.30;;;;;;5117190;28;19914;-39
2022/11/14 09:16:01;;;;;;;;;;;15.00;94.40;;;;;;5109438;28;19908;-39
2022/11/14 09:18:28;;;;;;;;;;;15.00;94.40;;;;;;5090717;28;20011;-39
2022/11/14 09:20:58;;;;;;;;;;;15.00;94.40;;;;;;5091030;28;19962;-39
2022/11/14 09:23:24;;;;;;;;;;;15.00;94.50;;;;;;5096473;28;19916;-39
2022/11/14 09:25:49;;;;;;;;;;;15.00;94.50;;;;;;5096403;28;19909;-39
2022/11/14 09:28:15;;;;;;;;;;;15.00;94.40;;;;;;5096474;28;19915;-39
2022/11/14 09:30:40;;;;;;;;;;;15.10;94.30;;;;;;5096561;28;19959;-40
2022/11/14 09:33:06;;;;;;;;;;;15.20;94.30;;;;;;5096227;28;20401;-39
2022/11/14 09:35:31;;;;;;;;;;;15.20;94.20;;;;;;5095892;28;19908;-40
2022/11/14 09:38:00;;;;;;;;;;;15.30;94.20;;;;;;5096360;28;19916;-39
2022/11/14 09:40:25;;;;;;;;;;;15.30;94.10;;;;;;5096264;28;20370;-39
2022/11/14 09:43:01;;;;;;;;;;;15.40;94.00;;;;;;5095993;28;19915;-39
2022/11/14 09:45:27;;;;;;;;;;;15.50;94.00;;;;;;5075948;28;19908;-40
2022/11/14 09:48:03;;;;;;;;;;;15.60;94.10;;;;;;5057272;28;19931;-39
2022/11/14 09:50:34;;;;;;;;;;;15.70;93.70;;;;;;5057977;28;19915;-39
2022/11/14 09:53:18;;;;;;;;;;;15.80;93.50;;;;;;5091938;28;20359;-39
2022/11/14 09:55:44;;;;;;;;;;;16.00;93.30;;;;;;5075788;28;19987;-39
2022/11/14 09:58:14;;;;;;;;;;;16.20;93.10;;;;;;5084304;28;20329;-39
2022/11/14 10:00:58;;;;;;;;;;;16.30;92.90;;;;;;5096153;28;19994;-39
2022/11/14 10:03:38;;;;;;;;;;;16.40;92.70;;;;;;5111876;28;20270;-39
2022/11/14 10:06:07;;;;;;;;;;;16.60;92.40;;;;;;5110953;28;19933;-39
2022/11/14 10:08:44;;;;;;;;;;;16.70;92.20;;;;;;5115598;28;19924;-39
2022/11/14 10:11:15;;;;;;;;;;;16.70;92.10;;;;;;5113945;28;19912;-39
2022/11/14 10:13:46;;;;;;;;;;;16.80;92.10;;;;;;5110610;28;20294;-39
2022/11/14 10:16:12;;;;;;;;;;;16.80;92.00;;;;;;5107753;28;19912;-39
2022/11/14 10:18:37;;;;;;;;;;;16.80;91.90;;;;;;5107810;28;19927;-40
2022/11/14 10:21:11;;;;;;;;;;;16.90;91.90;;;;;;5106997;28;19912;-39
2022/11/14 10:23:49;;;;;;;;;;;16.80;91.90;;;;;;5102448;28;19912;-39
2022/11/14 10:26:35;;;;;;;;;;;16.80;91.90;;;;;;5109631;28;19912;-39
2022/11/14 10:29:06;;;;;;;;;;;16.80;91.80;;;;;;5075187;28;19927;-39
2022/11/14 10:31:54;;;;;;;;;;;16.80;91.90;;;;;;5058004;28;20274;-39
2022/11/14 10:34:30;;;;;;;;;;;16.80;91.80;;;;;;5086828;28;19912;-39
2022/11/14 10:37:01;;;;;;;;;;;16.80;92.00;;;;;;5087152;28;20253;-38
2022/11/14 10:39:33;;;;;;;;;;;16.80;92.20;;;;;;5093946;28;19916;-38
2022/11/14 10:42:01;;;;;;;;;;;16.80;92.20;;;;;;5107865;28;19963;-38
2022/11/14 10:44:33;;;;;;;;;;;16.80;92.20;;;;;;5102035;28;20449;-39
2022/11/14 10:47:02;;;;;;;;;;;16.80;92.20;;;;;;5101952;28;19912;-39
2022/11/14 10:49:29;;;;;;;;;;;16.70;92.20;;;;;;5104874;28;19956;-39
2022/11/14 10:51:57;;;;;;;;;;;16.70;92.20;;;;;;5080860;28;19920;-39
2022/11/14 10:54:29;;;;;;;;;;;16.70;92.30;;;;;;5074404;28;19915;-39
2022/11/14 10:56:55;;;;;;;;;;;16.70;92.30;;;;;;5073940;28;20022;-39
2022/11/14 10:59:21;;;;;;;;;;;16.70;92.30;;;;;;5073734;28;19952;-39
2022/11/14 11:01:49;;;;;;;;;;;16.70;92.20;;;;;;5074440;28;19915;-39
2022/11/14 11:04:19;;;;;;;;;;;16.80;92.30;;;;;;5074243;28;20013;-39
2022/11/14 11:06:44;;;;;;;;;;;16.90;92.20;;;;;;5074072;28;19908;-39
2022/11/14 11:12:04;;;;;;;;;;;16.90;92.20;;;;;;5074455;28;19920;-39
2022/11/14 11:14:30;;;;;;;;;;;16.90;92.10;;;;;;5073851;28;19995;-39
2022/11/14 11:17:11;;;;;;;;;;;17.00;92.10;;;;;;5074095;28;19951;-39
2022/11/14 11:19:39;;;;;;;;;;;17.00;92.10;;;;;;5073651;28;19909;-39
2022/11/14 11:22:22;;;;;;;;;;;17.00;92.10;;;;;;5073952;28;19908;-39
2022/11/14 11:24:48;;;;;;;;;;;17.00;92.10;;;;;;5073620;28;19915;-39
2022/11/14 11:27:19;;;;;;;;;;;16.90;92.10;;;;;;5074010;28;19908;-39
2022/11/14 11:29:45;;;;;;;;;;;16.90;92.10;;;;;;5073849;28;19912;-39
2022/11/14 11:32:22;;;;;;;;;;;16.90;92.10;;;;;;5073869;28;19957;-39
2022/11/14 11:34:47;;;;;;;;;;;16.90;92.10;;;;;;5074173;28;19935;-39
2022/11/14 11:37:17;;;;;;;;;;;16.80;92.10;;;;;;5073599;28;19916;-39
2022/11/14 11:39:48;;;;;;;;;;;16.80;92.10;;;;;;5073668;28;19909;-39
2022/11/14 11:42:17;;;;;;;;;;;16.80;92.20;;;;;;5073621;28;19908;-39
2022/11/14 11:44:44;;;;;;;;;;;16.80;92.20;;;;;;5073936;28;19928;-39
2022/11/14 11:47:12;;;;;;;;;;;16.80;92.20;;;;;;5073529;28;19973;-39
2022/11/14 11:49:38;;;;;;;;;;;16.80;92.20;;;;;;5073569;28;20356;-39
2022/11/14 11:52:05;;;;;;;;;;;16.80;92.10;;;;;;5055796;28;19954;-39
2022/11/14 11:54:49;;;;;;;;;;;16.80;92.10;;;;;;5073598;28;20248;-39
2022/11/14 11:57:16;;;;;;;;;;;16.90;92.10;;;;;;5073408;28;19939;-39
2022/11/14 11:59:46;;;;;;;;;;;16.90;92.10;;;;;;5073794;28;19909;-39
2022/11/14 12:02:23;;;;;;;;;;;16.90;92.00;;;;;;5073381;28;19915;-39
2022/11/14 12:04:48;;;;;;;;;;;17.00;92.00;;;;;;5073959;28;19915;-39
2022/11/14 12:07:22;;;;;;;;;;;17.00;91.90;;;;;;5073272;28;20287;-39
2022/11/14 12:09:49;;;;;;;;;;;17.00;91.90;;;;;;5074996;28;19977;-39
2022/11/14 12:12:23;;;;;;;;;;;17.00;91.80;;;;;;5077581;28;19964;-39
2022/11/14 12:15:07;;;;;;;;;;;17.00;91.80;;;;;;5078135;28;19913;-39
2022/11/14 12:17:32;;;;;;;;;;;17.00;91.80;;;;;;5077198;28;19917;-38
2022/11/14 12:20:13;;;;;;;;;;;17.00;91.80;;;;;;5077316;28;19916;-38
2022/11/14 12:22:57;;;;;;;;;;;17.00;91.80;;;;;;5087997;28;19977;-38
2022/11/14 12:25:25;;;;;;;;;;;17.00;91.90;;;;;;5114355;28;19923;-38
2022/11/14 12:27:54;;;;;;;;;;;17.00;91.90;;;;;;5107508;28;19970;-38
2022/11/14 12:30:23;;;;;;;;;;;16.90;91.90;;;;;;5113734;28;19907;-38
2022/11/14 12:32:48;;;;;;;;;;;16.90;91.90;;;;;;5107447;28;19957;-39
2022/11/14 12:35:20;;;;;;;;;;;16.90;91.90;;;;;;5114489;28;20002;-41
2022/11/14 12:37:46;;;;;;;;;;;16.90;91.90;;;;;;5112534;28;19927;-40
2022/11/14 12:40:17;;;;;;;;;;;16.90;91.90;;;;;;5096832;28;20342;-40
2022/11/14 12:42:49;;;;;;;;;;;16.90;91.90;;;;;;5113540;28;19919;-41
2022/11/14 12:45:33;;;;;;;;;;;16.90;91.90;;;;;;5114404;28;19908;-40
2022/11/14 12:48:14;;;;;;;;;;;16.90;91.90;;;;;;5117087;28;19908;-42
2022/11/14 12:50:40;;;;;;;;;;;16.90;91.90;;;;;;5115047;28;20017;-41
2022/11/14 12:53:34;;;;;;;;;;;17.00;91.90;;;;;;5108875;28;19919;-42
2022/11/14 12:56:18;;;;;;;;;;;17.00;91.90;;;;;;5112981;28;19915;-41
2022/11/14 12:59:02;;;;;;;;;;;17.10;91.90;;;;;;5092486;28;19927;-40
2022/11/14 13:01:40;;;;;;;;;;;17.10;91.90;;;;;;5097119;28;20418;-40
2022/11/14 13:04:05;;;;;;;;;;;17.10;91.90;;;;;;5094478;28;20355;-40
2022/11/14 13:06:40;;;;;;;;;;;17.10;91.90;;;;;;5085172;28;19994;-40
2022/11/14 13:09:05;;;;;;;;;;;17.10;91.90;;;;;;5087480;28;20359;-40
2022/11/14 13:22:44;;;;;;;;;;;17.00;91.80;;;;;;5094491;28;20266;-41
2022/11/14 13:25:10;;;;;;;;;;;17.00;91.80;;;;;;5094706;28;19908;-41
2022/11/14 13:27:35;;;;;;;;;;;17.00;91.80;;;;;;5095313;28;20317;-42
2022/11/14 13:30:04;;;;;;;;;;;17.00;91.90;;;;;;5094747;28;19938;-41
2022/11/14 13:32:41;;;;;;;;;;;17.00;91.90;;;;;;5094519;28;19908;-42
2022/11/14 13:35:30;;;;;;;;;;;17.00;91.90;;;;;;5094504;28;19908;-41
2022/11/14 13:38:11;;;;;;;;;;;17.00;91.90;;;;;;5096368;28;19923;-40
2022/11/14 13:40:37;;;;;;;;;;;17.10;91.90;;;;;;5095915;28;19908;-40
2022/11/14 13:43:21;;;;;;;;;;;17.10;91.90;;;;;;5096314;28;19908;-40
2022/11/14 13:46:00;;;;;;;;;;;17.10;91.90;;;;;;5096173;28;19908;-40
2022/11/14 13:48:44;;;;;;;;;;;17.10;91.90;;;;;;5096325;28;19915;-40
2022/11/14 13:51:11;;;;;;;;;;;17.00;91.90;;;;;;5078220;28;20272;-40
2022/11/14 13:53:38;;;;;;;;;;;17.00;91.90;;;;;;5096209;28;19912;-40
2022/11/14 13:56:03;;;;;;;;;;;17.00;92.00;;;;;;5077842;28;20007;-40
2022/11/14 13:58:53;;;;;;;;;;;17.00;92.00;;;;;;5095847;28;20015;-40
2022/11/14 14:01:30;;;;;;;;;;;17.00;92.00;;;;;;5095949;28;19908;-40
2022/11/14 14:04:07;;;;;;;;;;;16.90;92.00;;;;;;5090409;28;19935;-40
2022/11/14 14:06:51;;;;;;;;;;;16.90;92.00;;;;;;5094881;28;19912;-40
2022/11/14 14:09:21;;;;;;;;;;;16.90;91.90;;;;;;5095190;28;20271;-41
2022/11/14 14:11:49;;;;;;;;;;;16.90;91.90;;;;;;5103862;28;20278;-40
2022/11/14 14:14:38;;;;;;;;;;;16.90;92.20;;;;;;5116038;28;19908;-40
2022/11/14 14:17:08;;;;;;;;;;;17.00;91.90;;;;;;5089273;28;20795;-40
2022/11/14 14:19:52;;;;;;;;;;;17.00;92.00;;;;;;5107180;28;19928;-40
2022/11/14 14:22:41;;;;;;;;;;;17.00;92.00;;;;;;5108691;28;19912;-40
2022/11/14 14:25:17;;;;;;;;;;;17.10;91.90;;;;;;5116226;28;19965;-40
2022/11/14 14:27:49;;;;;;;;;;;17.10;91.80;;;;;;5082958;28;19927;-41
2022/11/14 14:30:15;;;;;;;;;;;17.10;91.90;;;;;;5092974;28;19924;-41
2022/11/14 14:32:41;;;;;;;;;;;17.10;91.90;;;;;;5099277;28;20059;-40
2022/11/14 14:35:20;;;;;;;;;;;17.10;91.90;;;;;;5088607;28;20346;-40